sensor_id;sensor_type;location;lat;lon;timestamp;temperature;humidity
7970;DHT22;4030;52.362;9.206;2023-07-02T00:01:49;19.70;88.60
7970;DHT22;4030;52.362;9.206;2023-07-02T00:04:15;19.70;88.70
7970;DHT22;4030;52.362;9.206;2023-07-02T00:06:48;19.70;88.60
7970;DHT22;4030;52.362;9.206;2023-07-02T00:09:15;19.70;88.60
7970;DHT22;4030;52.362;9.206;2023-07-02T00:11:43;19.60;88.50
7970;DHT22;4030;52.362;9.206;2023-07-02T00:14:09;19.70;88.50
7970;DHT22;4030;52.362;9.206;2023-07-02T00:16:38;19.70;88.50
7970;DHT22;4030;52.362;9.206;2023-07-02T00:19:06;19.60;88.40
7970;DHT22;4030;52.362;9.206;2023-07-02T00:21:32;19.60;88.40
7970;DHT22;4030;52.362;9.206;2023-07-02T00:23:59;19.60;88.40
7970;DHT22;4030;52.362;9.206;2023-07-02T00:26:26;19.60;88.40
7970;DHT22;4030;52.362;9.206;2023-07-02T00:28:56;19.50;88.40
7970;DHT22;4030;52.362;9.206;2023-07-02T00:31:22;21.00;90.00
7970;DHT22;4030;52.362;9.206;2023-07-02T00:33:49;19.50;88.40
7970;DHT22;4030;52.362;9.206;2023-07-02T00:36:15;19.50;88.40
7970;DHT22;4030;52.362;9.206;2023-07-02T00:38:42;19.50;88.40
7970;DHT22;4030;52.362;9.206;2023-07-02T00:41:10;19.50;88.40
7970;DHT22;4030;52.362;9.206;2023-07-02T00:43:36;19.50;88.40
7970;DHT22;4030;52.362;9.206;2023-07-02T00:46:02;19.40;88.30
7970;DHT22;4030;52.362;9.206;2023-07-02T00:48:29;19.40;88.40
7970;DHT22;4030;52.362;9.206;2023-07-02T00:50:55;19.40;88.40
7970;DHT22;4030;52.362;9.206;2023-07-02T00:53:21;19.40;88.40
7970;DHT22;4030;52.362;9.206;2023-07-02T00:55:47;19.30;88.40
7970;DHT22;4030;52.362;9.206;2023-07-02T00:58:12;19.30;88.40
7970;DHT22;4030;52.362;9.206;2023-07-02T01:00:41;19.30;88.40
7970;DHT22;4030;52.362;9.206;2023-07-02T01:03:08;19.30;88.40
7970;DHT22;4030;52.362;9.206;2023-07-02T01:05:34;19.30;88.50
7970;DHT22;4030;52.362;9.206;2023-07-02T01:08:04;19.20;88.40
7970;DHT22;4030;52.362;9.206;2023-07-02T01:10:30;21.90;90.50
7970;DHT22;4030;52.362;9.206;2023-07-02T01:12:59;19.20;88.40
7970;DHT22;4030;52.362;9.206;2023-07-02T01:15:26;19.20;88.40
7970;DHT22;4030;52.362;9.206;2023-07-02T01:17:52;19.20;88.50
7970;DHT22;4030;52.362;9.206;2023-07-02T01:20:19;19.20;88.50
7970;DHT22;4030;52.362;9.206;2023-07-02T01:22:48;19.20;88.50
7970;DHT22;4030;52.362;9.206;2023-07-02T01:25:16;19.20;88.50
7970;DHT22;4030;52.362;9.206;2023-07-02T01:27:43;19.10;88.40
7970;DHT22;4030;52.362;9.206;2023-07-02T01:30:09;19.10;88.50
7970;DHT22;4030;52.362;9.206;2023-07-02T01:32:36;19.10;88.50
7970;DHT22;4030;52.362;9.206;2023-07-02T01:35:02;19.10;88.50
7970;DHT22;4030;52.362;9.206;2023-07-02T01:37:28;19.10;89.30
7970;DHT22;4030;52.362;9.206;2023-07-02T01:39:53;19.10;88.50
7970;DHT22;4030;52.362;9.206;2023-07-02T01:42:20;19.10;88.60
7970;DHT22;4030;52.362;9.206;2023-07-02T01:44:49;19.10;88.60
7970;DHT22;4030;52.362;9.206;2023-07-02T01:47:16;19.10;88.60
7970;DHT22;4030;52.362;9.206;2023-07-02T01:49:42;19.10;88.70
7970;DHT22;4030;52.362;9.206;2023-07-02T01:52:07;19.10;88.70
7970;DHT22;4030;52.362;9.206;2023-07-02T01:54:34;19.10;88.70
7970;DHT22;4030;52.362;9.206;2023-07-02T01:57:00;19.10;88.70
7970;DHT22;4030;52.362;9.206;2023-07-02T01:59:26;19.10;88.70
7970;DHT22;4030;52.362;9.206;2023-07-02T02:01:52;19.10;88.70
7970;DHT22;4030;52.362;9.206;2023-07-02T02:04:18;19.00;88.60
7970;DHT22;4030;52.362;9.206;2023-07-02T02:06:44;19.10;88.80
7970;DHT22;4030;52.362;9.206;2023-07-02T02:09:10;19.10;88.90
7970;DHT22;4030;52.362;9.206;2023-07-02T02:11:39;19.10;89.00
7970;DHT22;4030;52.362;9.206;2023-07-02T02:14:06;19.00;88.90
7970;DHT22;4030;52.362;9.206;2023-07-02T02:16:31;19.00;89.00
7970;DHT22;4030;52.362;9.206;2023-07-02T02:18:59;19.00;89.00
7970;DHT22;4030;52.362;9.206;2023-07-02T02:21:24;19.00;89.00
7970;DHT22;4030;52.362;9.206;2023-07-02T02:23:50;20.50;90.20
7970;DHT22;4030;52.362;9.206;2023-07-02T02:26:16;19.00;89.00
7970;DHT22;4030;52.362;9.206;2023-07-02T02:28:42;19.00;89.10
7970;DHT22;4030;52.362;9.206;2023-07-02T02:31:08;19.00;89.20
7970;DHT22;4030;52.362;9.206;2023-07-02T02:33:34;19.00;89.20
7970;DHT22;4030;52.362;9.206;2023-07-02T02:36:03;19.00;89.30
7970;DHT22;4030;52.362;9.206;2023-07-02T02:38:29;19.00;89.50
7970;DHT22;4030;52.362;9.206;2023-07-02T02:40:55;19.00;89.60
7970;DHT22;4030;52.362;9.206;2023-07-02T02:43:20;19.00;89.70
7970;DHT22;4030;52.362;9.206;2023-07-02T02:45:47;19.00;89.80
7970;DHT22;4030;52.362;9.206;2023-07-02T02:48:13;19.00;89.80
7970;DHT22;4030;52.362;9.206;2023-07-02T02:50:39;19.00;90.00
7970;DHT22;4030;52.362;9.206;2023-07-02T02:53:06;19.00;90.00
7970;DHT22;4030;52.362;9.206;2023-07-02T02:55:33;19.00;90.00
7970;DHT22;4030;52.362;9.206;2023-07-02T02:57:58;19.00;90.00
7970;DHT22;4030;52.362;9.206;2023-07-02T03:00:24;19.00;90.00
7970;DHT22;4030;52.362;9.206;2023-07-02T03:02:50;19.00;90.10
7970;DHT22;4030;52.362;9.206;2023-07-02T03:05:16;18.90;90.00
7970;DHT22;4030;52.362;9.206;2023-07-02T03:07:42;19.00;90.10
7970;DHT22;4030;52.362;9.206;2023-07-02T03:10:08;19.00;90.10
7970;DHT22;4030;52.362;9.206;2023-07-02T03:12:34;18.90;90.00
7970;DHT22;4030;52.362;9.206;2023-07-02T03:14:59;18.90;90.10
7970;DHT22;4030;52.362;9.206;2023-07-02T03:17:25;18.90;90.10
7970;DHT22;4030;52.362;9.206;2023-07-02T03:19:51;19.00;90.10
7970;DHT22;4030;52.362;9.206;2023-07-02T03:22:17;19.00;90.10
7970;DHT22;4030;52.362;9.206;2023-07-02T03:24:43;19.00;90.20
7970;DHT22;4030;52.362;9.206;2023-07-02T03:27:08;19.00;90.20
7970;DHT22;4030;52.362;9.206;2023-07-02T03:29:34;19.00;90.10
7970;DHT22;4030;52.362;9.206;2023-07-02T03:32:01;19.00;90.20
7970;DHT22;4030;52.362;9.206;2023-07-02T03:34:27;18.90;90.20
7970;DHT22;4030;52.362;9.206;2023-07-02T03:36:53;19.00;90.20
7970;DHT22;4030;52.362;9.206;2023-07-02T03:39:19;19.00;90.20
7970;DHT22;4030;52.362;9.206;2023-07-02T03:41:45;19.00;90.30
7970;DHT22;4030;52.362;9.206;2023-07-02T03:44:11;19.00;90.30
7970;DHT22;4030;52.362;9.206;2023-07-02T03:46:36;19.00;90.30
7970;DHT22;4030;52.362;9.206;2023-07-02T03:49:03;19.00;90.30
7970;DHT22;4030;52.362;9.206;2023-07-02T03:51:29;19.00;90.30
7970;DHT22;4030;52.362;9.206;2023-07-02T03:53:58;19.00;90.30
7970;DHT22;4030;52.362;9.206;2023-07-02T03:56:24;19.00;90.30
7970;DHT22;4030;52.362;9.206;2023-07-02T03:58:50;19.00;90.00
7970;DHT22;4030;52.362;9.206;2023-07-02T04:01:16;19.00;90.40
7970;DHT22;4030;52.362;9.206;2023-07-02T04:03:52;19.00;90.30
7970;DHT22;4030;52.362;9.206;2023-07-02T04:06:18;19.00;90.30
7970;DHT22;4030;52.362;9.206;2023-07-02T04:08:44;19.00;90.30
7970;DHT22;4030;52.362;9.206;2023-07-02T04:11:10;19.00;90.30
7970;DHT22;4030;52.362;9.206;2023-07-02T04:13:37;19.00;90.30
7970;DHT22;4030;52.362;9.206;2023-07-02T04:16:03;19.00;90.30
7970;DHT22;4030;52.362;9.206;2023-07-02T04:18:29;19.00;90.30
7970;DHT22;4030;52.362;9.206;2023-07-02T04:20:56;19.00;90.30
7970;DHT22;4030;52.362;9.206;2023-07-02T04:23:23;19.00;90.30
7970;DHT22;4030;52.362;9.206;2023-07-02T04:25:49;19.00;90.30
7970;DHT22;4030;52.362;9.206;2023-07-02T04:28:15;19.00;90.30
7970;DHT22;4030;52.362;9.206;2023-07-02T04:30:41;19.00;90.20
7970;DHT22;4030;52.362;9.206;2023-07-02T04:33:07;19.00;90.20
7970;DHT22;4030;52.362;9.206;2023-07-02T04:35:33;18.90;90.10
7970;DHT22;4030;52.362;9.206;2023-07-02T04:38:00;18.90;90.10
7970;DHT22;4030;52.362;9.206;2023-07-02T04:40:26;18.90;90.00
7970;DHT22;4030;52.362;9.206;2023-07-02T04:42:52;18.90;90.00
7970;DHT22;4030;52.362;9.206;2023-07-02T04:45:23;18.90;90.00
7970;DHT22;4030;52.362;9.206;2023-07-02T04:47:52;18.90;89.90
7970;DHT22;4030;52.362;9.206;2023-07-02T04:50:18;18.90;89.80
7970;DHT22;4030;52.362;9.206;2023-07-02T04:52:44;18.90;89.80
7970;DHT22;4030;52.362;9.206;2023-07-02T04:55:10;18.90;89.60
7970;DHT22;4030;52.362;9.206;2023-07-02T04:57:37;18.90;89.50
7970;DHT22;4030;52.362;9.206;2023-07-02T05:00:03;18.90;89.40
7970;DHT22;4030;52.362;9.206;2023-07-02T05:02:31;18.90;89.30
7970;DHT22;4030;52.362;9.206;2023-07-02T05:04:56;18.90;89.20
7970;DHT22;4030;52.362;9.206;2023-07-02T05:07:22;18.90;89.10
7970;DHT22;4030;52.362;9.206;2023-07-02T05:09:48;19.00;89.10
7970;DHT22;4030;52.362;9.206;2023-07-02T05:12:15;19.00;89.00
7970;DHT22;4030;52.362;9.206;2023-07-02T05:14:40;19.00;88.80
7970;DHT22;4030;52.362;9.206;2023-07-02T05:17:06;19.10;88.70
7970;DHT22;4030;52.362;9.206;2023-07-02T05:19:31;19.10;88.60
7970;DHT22;4030;52.362;9.206;2023-07-02T05:21:57;19.10;88.60
7970;DHT22;4030;52.362;9.206;2023-07-02T05:24:23;19.10;88.50
7970;DHT22;4030;52.362;9.206;2023-07-02T05:26:48;19.10;88.60
7970;DHT22;4030;52.362;9.206;2023-07-02T05:29:16;19.10;88.60
7970;DHT22;4030;52.362;9.206;2023-07-02T05:31:42;19.10;88.50
7970;DHT22;4030;52.362;9.206;2023-07-02T05:34:07;19.10;88.40
7970;DHT22;4030;52.362;9.206;2023-07-02T05:36:33;19.20;88.50
7970;DHT22;4030;52.362;9.206;2023-07-02T05:39:00;19.20;88.50
7970;DHT22;4030;52.362;9.206;2023-07-02T05:41:25;19.20;88.40
7970;DHT22;4030;52.362;9.206;2023-07-02T05:43:58;19.20;88.30
7970;DHT22;4030;52.362;9.206;2023-07-02T05:46:25;19.20;88.30
7970;DHT22;4030;52.362;9.206;2023-07-02T05:48:50;19.30;88.40
7970;DHT22;4030;52.362;9.206;2023-07-02T05:51:23;19.30;88.30
7970;DHT22;4030;52.362;9.206;2023-07-02T05:53:50;19.30;88.30
7970;DHT22;4030;52.362;9.206;2023-07-02T05:56:16;19.40;88.40
7970;DHT22;4030;52.362;9.206;2023-07-02T05:58:42;19.40;88.30
7970;DHT22;4030;52.362;9.206;2023-07-02T06:01:08;19.40;88.20
7970;DHT22;4030;52.362;9.206;2023-07-02T06:03:34;19.50;88.30
7970;DHT22;4030;52.362;9.206;2023-07-02T06:05:59;19.50;88.90
7970;DHT22;4030;52.362;9.206;2023-07-02T06:08:25;19.60;88.00
7970;DHT22;4030;52.362;9.206;2023-07-02T06:10:51;17.70;85.90
7970;DHT22;4030;52.362;9.206;2023-07-02T06:13:16;19.70;88.00
7970;DHT22;4030;52.362;9.206;2023-07-02T06:15:43;19.70;87.90
7970;DHT22;4030;52.362;9.206;2023-07-02T06:18:09;19.70;87.70
7970;DHT22;4030;52.362;9.206;2023-07-02T06:20:34;19.80;87.70
7970;DHT22;4030;52.362;9.206;2023-07-02T06:23:00;19.80;87.50
7970;DHT22;4030;52.362;9.206;2023-07-02T06:25:26;19.90;87.40
7970;DHT22;4030;52.362;9.206;2023-07-02T06:27:52;19.90;87.20
7970;DHT22;4030;52.362;9.206;2023-07-02T06:30:20;20.00;87.10
7970;DHT22;4030;52.362;9.206;2023-07-02T06:32:48;20.00;86.90
7970;DHT22;4030;52.362;9.206;2023-07-02T06:35:14;20.00;86.90
7970;DHT22;4030;52.362;9.206;2023-07-02T06:37:40;20.10;86.90
7970;DHT22;4030;52.362;9.206;2023-07-02T06:40:06;20.10;86.70
7970;DHT22;4030;52.362;9.206;2023-07-02T06:42:32;20.20;86.60
7970;DHT22;4030;52.362;9.206;2023-07-02T06:44:58;20.20;86.50
7970;DHT22;4030;52.362;9.206;2023-07-02T06:47:24;20.30;86.30
7970;DHT22;4030;52.362;9.206;2023-07-02T06:49:52;20.30;86.20
7970;DHT22;4030;52.362;9.206;2023-07-02T06:52:17;20.40;86.00
7970;DHT22;4030;52.362;9.206;2023-07-02T06:54:43;20.40;85.60
7970;DHT22;4030;52.362;9.206;2023-07-02T06:57:09;20.50;85.40
7970;DHT22;4030;52.362;9.206;2023-07-02T06:59:34;20.60;85.10
7970;DHT22;4030;52.362;9.206;2023-07-02T07:02:01;20.60;84.80
7970;DHT22;4030;52.362;9.206;2023-07-02T07:04:27;20.60;84.50
7970;DHT22;4030;52.362;9.206;2023-07-02T07:06:53;20.70;84.20
7970;DHT22;4030;52.362;9.206;2023-07-02T07:09:21;20.80;83.90
7970;DHT22;4030;52.362;9.206;2023-07-02T07:11:46;20.80;83.60
7970;DHT22;4030;52.362;9.206;2023-07-02T07:14:12;20.90;83.30
7970;DHT22;4030;52.362;9.206;2023-07-02T07:16:38;21.00;83.00
7970;DHT22;4030;52.362;9.206;2023-07-02T07:19:04;21.00;82.60
7970;DHT22;4030;52.362;9.206;2023-07-02T07:21:30;21.10;82.40
7970;DHT22;4030;52.362;9.206;2023-07-02T07:23:56;21.20;82.00
7970;DHT22;4030;52.362;9.206;2023-07-02T07:26:22;21.20;81.60
7970;DHT22;4030;52.362;9.206;2023-07-02T07:28:47;21.30;81.30
7970;DHT22;4030;52.362;9.206;2023-07-02T07:31:13;21.30;80.90
7970;DHT22;4030;52.362;9.206;2023-07-02T07:33:39;21.40;80.70
7970;DHT22;4030;52.362;9.206;2023-07-02T07:36:04;21.50;80.50
7970;DHT22;4030;52.362;9.206;2023-07-02T07:38:30;21.50;80.00
7970;DHT22;4030;52.362;9.206;2023-07-02T07:40:56;21.60;80.00
7970;DHT22;4030;52.362;9.206;2023-07-02T07:43:22;21.60;79.80
7970;DHT22;4030;52.362;9.206;2023-07-02T07:45:47;21.60;79.40
7970;DHT22;4030;52.362;9.206;2023-07-02T07:48:14;21.50;79.00
7970;DHT22;4030;52.362;9.206;2023-07-02T07:50:40;21.50;78.70
7970;DHT22;4030;52.362;9.206;2023-07-02T07:53:06;21.50;78.30
7970;DHT22;4030;52.362;9.206;2023-07-02T07:55:31;21.60;78.20
7970;DHT22;4030;52.362;9.206;2023-07-02T07:57:57;21.60;77.90
7970;DHT22;4030;52.362;9.206;2023-07-02T08:00:23;21.70;77.70
7970;DHT22;4030;52.362;9.206;2023-07-02T08:02:49;21.70;77.60
7970;DHT22;4030;52.362;9.206;2023-07-02T08:05:17;21.80;77.50
7970;DHT22;4030;52.362;9.206;2023-07-02T08:07:43;21.90;78.10
7970;DHT22;4030;52.362;9.206;2023-07-02T08:10:09;22.00;76.90
7970;DHT22;4030;52.362;9.206;2023-07-02T08:12:35;22.20;76.50
7970;DHT22;4030;52.362;9.206;2023-07-02T08:15:01;22.30;76.10
7970;DHT22;4030;52.362;9.206;2023-07-02T08:17:26;22.40;75.70
7970;DHT22;4030;52.362;9.206;2023-07-02T08:19:52;22.50;75.30
7970;DHT22;4030;52.362;9.206;2023-07-02T08:22:18;22.60;74.70
7970;DHT22;4030;52.362;9.206;2023-07-02T08:24:44;22.70;74.20
7970;DHT22;4030;52.362;9.206;2023-07-02T08:27:09;22.80;73.70
7970;DHT22;4030;52.362;9.206;2023-07-02T08:29:38;22.90;73.30
7970;DHT22;4030;52.362;9.206;2023-07-02T08:32:04;23.00;73.00
7970;DHT22;4030;52.362;9.206;2023-07-02T08:34:30;23.10;72.60
7970;DHT22;4030;52.362;9.206;2023-07-02T08:36:56;23.30;72.30
7970;DHT22;4030;52.362;9.206;2023-07-02T08:39:21;23.30;71.30
7970;DHT22;4030;52.362;9.206;2023-07-02T08:41:48;23.40;70.60
7970;DHT22;4030;52.362;9.206;2023-07-02T08:44:18;23.50;70.30
7970;DHT22;4030;52.362;9.206;2023-07-02T08:46:45;23.60;70.10
7970;DHT22;4030;52.362;9.206;2023-07-02T08:49:12;23.50;69.70
7970;DHT22;4030;52.362;9.206;2023-07-02T08:51:38;23.50;69.50
7970;DHT22;4030;52.362;9.206;2023-07-02T08:54:04;23.50;70.00
7970;DHT22;4030;52.362;9.206;2023-07-02T08:56:30;23.50;68.90
7970;DHT22;4030;52.362;9.206;2023-07-02T08:58:55;23.60;68.60
7970;DHT22;4030;52.362;9.206;2023-07-02T09:01:21;23.60;68.30
7970;DHT22;4030;52.362;9.206;2023-07-02T09:03:49;23.60;67.60
7970;DHT22;4030;52.362;9.206;2023-07-02T09:06:17;23.70;66.80
7970;DHT22;4030;52.362;9.206;2023-07-02T09:08:43;23.80;66.30
7970;DHT22;4030;52.362;9.206;2023-07-02T09:11:11;23.80;66.10
7970;DHT22;4030;52.362;9.206;2023-07-02T09:13:42;23.80;65.80
7970;DHT22;4030;52.362;9.206;2023-07-02T09:16:27;23.90;65.40
7970;DHT22;4030;52.362;9.206;2023-07-02T09:21:44;24.00;64.30
7970;DHT22;4030;52.362;9.206;2023-07-02T09:24:23;24.10;64.00
7970;DHT22;4030;52.362;9.206;2023-07-02T09:26:54;24.20;63.70
7970;DHT22;4030;52.362;9.206;2023-07-02T09:29:26;24.20;63.40
7970;DHT22;4030;52.362;9.206;2023-07-02T09:32:00;24.30;63.30
7970;DHT22;4030;52.362;9.206;2023-07-02T09:34:33;24.20;62.80
7970;DHT22;4030;52.362;9.206;2023-07-02T09:37:01;24.20;62.90
7970;DHT22;4030;52.362;9.206;2023-07-02T09:39:29;24.20;62.60
7970;DHT22;4030;52.362;9.206;2023-07-02T09:41:57;24.10;62.20
7970;DHT22;4030;52.362;9.206;2023-07-02T09:44:28;24.00;61.80
7970;DHT22;4030;52.362;9.206;2023-07-02T09:47:08;24.00;61.30
7970;DHT22;4030;52.362;9.206;2023-07-02T09:49:36;24.00;61.20
7970;DHT22;4030;52.362;9.206;2023-07-02T09:52:07;23.90;61.00
7970;DHT22;4030;52.362;9.206;2023-07-02T09:54:34;23.80;60.80
7970;DHT22;4030;52.362;9.206;2023-07-02T09:57:00;23.80;60.60
7970;DHT22;4030;52.362;9.206;2023-07-02T09:59:27;23.80;60.70
7970;DHT22;4030;52.362;9.206;2023-07-02T10:01:54;23.80;60.70
7970;DHT22;4030;52.362;9.206;2023-07-02T10:04:21;23.80;60.80
7970;DHT22;4030;52.362;9.206;2023-07-02T10:06:51;23.80;60.90
7970;DHT22;4030;52.362;9.206;2023-07-02T10:09:33;23.70;60.90
7970;DHT22;4030;52.362;9.206;2023-07-02T10:12:00;23.70;60.90
7970;DHT22;4030;52.362;9.206;2023-07-02T10:14:26;23.70;61.00
7970;DHT22;4030;52.362;9.206;2023-07-02T10:16:53;23.70;61.00
7970;DHT22;4030;52.362;9.206;2023-07-02T10:19:20;23.70;61.10
7970;DHT22;4030;52.362;9.206;2023-07-02T10:21:47;23.70;61.20
7970;DHT22;4030;52.362;9.206;2023-07-02T10:24:26;23.70;61.00
7970;DHT22;4030;52.362;9.206;2023-07-02T10:26:56;23.60;60.80
7970;DHT22;4030;52.362;9.206;2023-07-02T10:29:24;23.60;60.80
7970;DHT22;4030;52.362;9.206;2023-07-02T10:31:51;23.60;60.80
7970;DHT22;4030;52.362;9.206;2023-07-02T10:34:31;23.70;60.80
7970;DHT22;4030;52.362;9.206;2023-07-02T10:36:59;23.70;60.60
7970;DHT22;4030;52.362;9.206;2023-07-02T10:39:29;23.70;60.30
7970;DHT22;4030;52.362;9.206;2023-07-02T10:42:08;23.80;60.00
7970;DHT22;4030;52.362;9.206;2023-07-02T10:44:46;23.80;59.80
7970;DHT22;4030;52.362;9.206;2023-07-02T10:47:15;24.00;59.60
7970;DHT22;4030;52.362;9.206;2023-07-02T10:49:41;24.30;59.20
7970;DHT22;4030;52.362;9.206;2023-07-02T10:52:06;24.50;59.10
7970;DHT22;4030;52.362;9.206;2023-07-02T10:54:46;24.70;58.70
7970;DHT22;4030;52.362;9.206;2023-07-02T10:57:17;24.80;58.50
7970;DHT22;4030;52.362;9.206;2023-07-02T10:59:47;24.90;58.30
7970;DHT22;4030;52.362;9.206;2023-07-02T11:02:14;24.90;58.20
7970;DHT22;4030;52.362;9.206;2023-07-02T11:04:40;24.90;58.30
7970;DHT22;4030;52.362;9.206;2023-07-02T11:07:06;24.80;58.20
7970;DHT22;4030;52.362;9.206;2023-07-02T11:09:32;24.80;58.30
7970;DHT22;4030;52.362;9.206;2023-07-02T11:11:59;24.70;58.10
7970;DHT22;4030;52.362;9.206;2023-07-02T11:14:33;24.60;58.00
7970;DHT22;4030;52.362;9.206;2023-07-02T11:17:02;24.60;58.00
7970;DHT22;4030;52.362;9.206;2023-07-02T11:19:31;24.60;58.00
7970;DHT22;4030;52.362;9.206;2023-07-02T11:21:58;24.50;57.90
7970;DHT22;4030;52.362;9.206;2023-07-02T11:24:32;24.50;57.80
7970;DHT22;4030;52.362;9.206;2023-07-02T11:27:00;24.50;57.70
7970;DHT22;4030;52.362;9.206;2023-07-02T11:29:27;24.50;57.70
7970;DHT22;4030;52.362;9.206;2023-07-02T11:32:10;24.60;57.60
7970;DHT22;4030;52.362;9.206;2023-07-02T11:34:37;24.60;57.20
7970;DHT22;4030;52.362;9.206;2023-07-02T11:37:04;24.70;57.00
7970;DHT22;4030;52.362;9.206;2023-07-02T11:39:31;24.80;56.70
7970;DHT22;4030;52.362;9.206;2023-07-02T11:41:57;25.00;56.40
7970;DHT22;4030;52.362;9.206;2023-07-02T11:44:23;25.10;56.30
7970;DHT22;4030;52.362;9.206;2023-07-02T11:46:49;25.20;56.40
7970;DHT22;4030;52.362;9.206;2023-07-02T11:49:14;28.00;58.10
7970;DHT22;4030;52.362;9.206;2023-07-02T11:51:41;25.40;56.20
7970;DHT22;4030;52.362;9.206;2023-07-02T11:54:13;25.50;55.90
7970;DHT22;4030;52.362;9.206;2023-07-02T11:56:39;25.70;55.60
7970;DHT22;4030;52.362;9.206;2023-07-02T11:59:07;25.90;55.30
7970;DHT22;4030;52.362;9.206;2023-07-02T12:01:32;26.10;55.00
7970;DHT22;4030;52.362;9.206;2023-07-02T12:03:59;26.20;54.70
7970;DHT22;4030;52.362;9.206;2023-07-02T12:06:24;26.30;54.10
7970;DHT22;4030;52.362;9.206;2023-07-02T12:08:50;26.40;54.00
7970;DHT22;4030;52.362;9.206;2023-07-02T12:11:16;26.40;53.80
7970;DHT22;4030;52.362;9.206;2023-07-02T12:13:42;26.40;53.40
7970;DHT22;4030;52.362;9.206;2023-07-02T12:16:08;26.50;52.90
7970;DHT22;4030;52.362;9.206;2023-07-02T12:18:33;26.70;52.50
7970;DHT22;4030;52.362;9.206;2023-07-02T12:20:59;27.00;52.20
7970;DHT22;4030;52.362;9.206;2023-07-02T12:23:25;27.10;51.70
7970;DHT22;4030;52.362;9.206;2023-07-02T12:25:50;27.20;51.30
7970;DHT22;4030;52.362;9.206;2023-07-02T12:28:16;27.30;51.10
7970;DHT22;4030;52.362;9.206;2023-07-02T12:30:42;27.30;50.90
7970;DHT22;4030;52.362;9.206;2023-07-02T12:33:07;27.20;50.50
7970;DHT22;4030;52.362;9.206;2023-07-02T12:35:33;27.20;50.10
7970;DHT22;4030;52.362;9.206;2023-07-02T12:38:00;27.30;49.70
7970;DHT22;4030;52.362;9.206;2023-07-02T12:40:25;27.50;49.50
7970;DHT22;4030;52.362;9.206;2023-07-02T12:42:51;27.50;49.20
7970;DHT22;4030;52.362;9.206;2023-07-02T12:45:17;27.70;49.00
7970;DHT22;4030;52.362;9.206;2023-07-02T12:47:43;27.90;48.90
7970;DHT22;4030;52.362;9.206;2023-07-02T12:50:10;28.10;48.70
7970;DHT22;4030;52.362;9.206;2023-07-02T12:52:36;28.30;48.80
7970;DHT22;4030;52.362;9.206;2023-07-02T12:55:02;28.40;48.70
7970;DHT22;4030;52.362;9.206;2023-07-02T12:57:28;28.50;48.70
7970;DHT22;4030;52.362;9.206;2023-07-02T12:59:54;28.50;48.80
7970;DHT22;4030;52.362;9.206;2023-07-02T13:02:21;28.40;48.70
7970;DHT22;4030;52.362;9.206;2023-07-02T13:04:47;28.40;48.60
7970;DHT22;4030;52.362;9.206;2023-07-02T13:07:13;28.40;48.60
7970;DHT22;4030;52.362;9.206;2023-07-02T13:09:39;28.50;47.90
7970;DHT22;4030;52.362;9.206;2023-07-02T13:12:05;28.60;47.40
7970;DHT22;4030;52.362;9.206;2023-07-02T13:14:31;28.60;47.30
7970;DHT22;4030;52.362;9.206;2023-07-02T13:16:57;28.60;47.00
7970;DHT22;4030;52.362;9.206;2023-07-02T13:19:24;28.60;46.90
7970;DHT22;4030;52.362;9.206;2023-07-02T13:21:50;28.60;46.90
7970;DHT22;4030;52.362;9.206;2023-07-02T13:24:16;28.60;46.70
7970;DHT22;4030;52.362;9.206;2023-07-02T13:26:41;28.60;46.30
7970;DHT22;4030;52.362;9.206;2023-07-02T13:29:07;28.70;46.20
7970;DHT22;4030;52.362;9.206;2023-07-02T13:31:32;28.80;46.10
7970;DHT22;4030;52.362;9.206;2023-07-02T13:33:58;28.80;46.30
7970;DHT22;4030;52.362;9.206;2023-07-02T13:36:24;28.60;46.40
7970;DHT22;4030;52.362;9.206;2023-07-02T13:38:49;28.50;46.40
7970;DHT22;4030;52.362;9.206;2023-07-02T13:41:15;28.40;46.70
7970;DHT22;4030;52.362;9.206;2023-07-02T13:43:41;28.20;46.70
7970;DHT22;4030;52.362;9.206;2023-07-02T13:46:06;28.10;46.50
7970;DHT22;4030;52.362;9.206;2023-07-02T13:48:32;28.00;46.30
7970;DHT22;4030;52.362;9.206;2023-07-02T13:50:58;28.00;46.20
7970;DHT22;4030;52.362;9.206;2023-07-02T13:53:23;28.00;45.80
7970;DHT22;4030;52.362;9.206;2023-07-02T13:55:49;28.20;45.50
7970;DHT22;4030;52.362;9.206;2023-07-02T13:58:15;28.30;45.40
7970;DHT22;4030;52.362;9.206;2023-07-02T14:00:40;28.40;45.20
7970;DHT22;4030;52.362;9.206;2023-07-02T14:03:06;28.40;45.40
7970;DHT22;4030;52.362;9.206;2023-07-02T14:05:32;28.30;45.50
7970;DHT22;4030;52.362;9.206;2023-07-02T14:07:58;28.20;45.50
7970;DHT22;4030;52.362;9.206;2023-07-02T14:10:24;28.00;45.40
7970;DHT22;4030;52.362;9.206;2023-07-02T14:12:49;28.00;45.60
7970;DHT22;4030;52.362;9.206;2023-07-02T14:15:15;27.90;45.70
7970;DHT22;4030;52.362;9.206;2023-07-02T14:17:41;27.80;45.80
7970;DHT22;4030;52.362;9.206;2023-07-02T14:20:08;27.80;45.70
7970;DHT22;4030;52.362;9.206;2023-07-02T14:22:35;28.00;45.60
7970;DHT22;4030;52.362;9.206;2023-07-02T14:25:00;28.20;45.50
7970;DHT22;4030;52.362;9.206;2023-07-02T14:27:26;28.30;45.50
7970;DHT22;4030;52.362;9.206;2023-07-02T14:29:52;28.30;45.60
7970;DHT22;4030;52.362;9.206;2023-07-02T14:32:18;28.20;45.80
7970;DHT22;4030;52.362;9.206;2023-07-02T14:34:43;29.10;46.50
7970;DHT22;4030;52.362;9.206;2023-07-02T14:37:09;28.00;46.00
7970;DHT22;4030;52.362;9.206;2023-07-02T14:39:35;28.00;46.20
7970;DHT22;4030;52.362;9.206;2023-07-02T14:42:01;27.90;46.30
7970;DHT22;4030;52.362;9.206;2023-07-02T14:44:26;27.80;46.30
7970;DHT22;4030;52.362;9.206;2023-07-02T14:46:52;27.80;46.20
7970;DHT22;4030;52.362;9.206;2023-07-02T14:49:18;27.80;46.30
7970;DHT22;4030;52.362;9.206;2023-07-02T14:51:44;27.80;46.10
7970;DHT22;4030;52.362;9.206;2023-07-02T14:54:10;27.90;46.00
7970;DHT22;4030;52.362;9.206;2023-07-02T14:56:36;27.90;46.00
7970;DHT22;4030;52.362;9.206;2023-07-02T14:59:03;27.90;46.00
7970;DHT22;4030;52.362;9.206;2023-07-02T15:01:29;26.40;44.90
7970;DHT22;4030;52.362;9.206;2023-07-02T15:03:55;27.90;45.90
7970;DHT22;4030;52.362;9.206;2023-07-02T15:06:21;27.80;45.80
7970;DHT22;4030;52.362;9.206;2023-07-02T15:08:47;27.80;45.90
7970;DHT22;4030;52.362;9.206;2023-07-02T15:11:14;27.80;45.80
7970;DHT22;4030;52.362;9.206;2023-07-02T15:13:40;27.80;45.70
7970;DHT22;4030;52.362;9.206;2023-07-02T15:16:08;27.80;45.80
7970;DHT22;4030;52.362;9.206;2023-07-02T15:18:34;27.70;45.80
7970;DHT22;4030;52.362;9.206;2023-07-02T15:21:00;27.70;45.90
7970;DHT22;4030;52.362;9.206;2023-07-02T15:23:27;27.60;45.60
7970;DHT22;4030;52.362;9.206;2023-07-02T15:26:01;27.60;45.30
7970;DHT22;4030;52.362;9.206;2023-07-02T15:28:28;27.60;45.30
7970;DHT22;4030;52.362;9.206;2023-07-02T15:30:58;27.60;45.30
7970;DHT22;4030;52.362;9.206;2023-07-02T15:33:28;27.50;45.30
7970;DHT22;4030;52.362;9.206;2023-07-02T15:35:54;27.50;45.40
7970;DHT22;4030;52.362;9.206;2023-07-02T15:38:20;27.50;45.30
7970;DHT22;4030;52.362;9.206;2023-07-02T15:40:47;27.50;45.30
7970;DHT22;4030;52.362;9.206;2023-07-02T15:43:14;27.50;45.10
7970;DHT22;4030;52.362;9.206;2023-07-02T15:45:40;27.50;45.10
7970;DHT22;4030;52.362;9.206;2023-07-02T15:48:06;27.40;45.20
7970;DHT22;4030;52.362;9.206;2023-07-02T15:50:32;27.40;45.20
7970;DHT22;4030;52.362;9.206;2023-07-02T15:52:58;27.30;45.00
7970;DHT22;4030;52.362;9.206;2023-07-02T15:55:23;27.30;44.90
7970;DHT22;4030;52.362;9.206;2023-07-02T15:57:50;27.20;44.50
7970;DHT22;4030;52.362;9.206;2023-07-02T16:00:16;27.20;44.20
7970;DHT22;4030;52.362;9.206;2023-07-02T16:02:42;27.10;44.10